Time;durP1;ratioP1;P1;durP2;ratioP2;P2;SDS_P1;SDS_P2;PMS_P1;PMS_P2;Temp;Humidity;BMP_temperature;BMP_pressure;BME280_temperature;BME280_humidity;BME280_pressure;Samples;Min_cycle;Max_cycle;Signal;HPM_P1;HPM_P2
2021/11/22 00:00:40;;;;;;;7.60;2.47;;;6.90;99.90;;;;;;4063638;29;20032;-73
2021/11/22 00:02:42;;;;;;;6.50;2.53;;;6.90;99.90;;;;;;4063643;29;20111;-73
2021/11/22 00:06:58;;;;;;;9.50;2.53;;;6.90;99.90;;;;;;4187778;28;20402;-72
2021/11/22 00:08:58;;;;;;;6.65;2.65;;;6.90;99.90;;;;;;4187669;28;20033;-72
2021/11/22 00:10:59;;;;;;;6.20;2.22;;;6.80;99.90;;;;;;4185854;28;20032;-73
2021/11/22 00:13:00;;;;;;;5.35;2.55;;;6.90;99.90;;;;;;4187432;28;20095;-73
2021/11/22 00:15:03;;;;;;;11.38;2.50;;;6.80;99.90;;;;;;4187544;28;20021;-73
2021/11/22 00:17:04;;;;;;;8.57;2.67;;;6.80;99.90;;;;;;4187582;28;20024;-72
2021/11/22 00:19:05;;;;;;;9.40;2.50;;;6.80;99.90;;;;;;4186831;28;20021;-72
2021/11/22 00:21:06;;;;;;;7.70;2.13;;;6.80;99.90;;;;;;4187347;28;20818;-72
2021/11/22 00:23:06;;;;;;;8.82;2.42;;;6.80;99.90;;;;;;4186163;28;20432;-72
2021/11/22 00:25:07;;;;;;;9.40;2.85;;;6.70;99.90;;;;;;4185757;28;20548;-73
2021/11/22 00:27:08;;;;;;;8.93;2.67;;;6.70;99.90;;;;;;4187129;28;20045;-72
2021/11/22 00:29:08;;;;;;;9.00;2.20;;;6.70;99.90;;;;;;4187290;28;20035;-72
2021/11/22 00:31:09;;;;;;;8.73;2.88;;;6.80;99.90;;;;;;4185487;28;20029;-73
2021/11/22 00:33:11;;;;;;;8.02;2.60;;;6.80;99.90;;;;;;4170346;28;20408;-72
2021/11/22 00:35:14;;;;;;;9.02;2.17;;;6.80;99.90;;;;;;4169799;28;20043;-72
2021/11/22 00:37:20;;;;;;;6.03;2.33;;;6.70;99.90;;;;;;4167448;28;20025;-72
2021/11/22 00:39:20;;;;;;;7.38;2.47;;;6.70;99.90;;;;;;4170377;28;20029;-73
2021/11/22 00:41:21;;;;;;;6.25;2.30;;;6.70;99.90;;;;;;4170874;28;20501;-73
2021/11/22 00:43:22;;;;;;;8.73;2.25;;;6.70;99.90;;;;;;4170990;28;20239;-72
2021/11/22 00:45:23;;;;;;;12.57;2.40;;;6.70;99.90;;;;;;4170615;28;20026;-73
2021/11/22 00:47:23;;;;;;;7.38;2.35;;;6.70;99.90;;;;;;4170057;28;20033;-73
2021/11/22 00:49:24;;;;;;;6.68;2.75;;;6.70;99.90;;;;;;4170649;28;20033;-73
2021/11/22 00:51:25;;;;;;;6.65;2.30;;;6.70;99.90;;;;;;4168019;28;20752;-73
2021/11/22 00:53:25;;;;;;;9.93;2.67;;;6.70;99.90;;;;;;4169666;28;20021;-73
2021/11/22 00:55:26;;;;;;;8.93;2.85;;;6.70;99.90;;;;;;4170679;28;20166;-73
2021/11/22 00:57:27;;;;;;;4.97;2.17;;;6.70;99.90;;;;;;4170379;28;20036;-73
2021/11/22 00:59:27;;;;;;;10.43;2.80;;;6.70;99.90;;;;;;4170834;28;20053;-72
2021/11/22 01:01:28;;;;;;;9.25;3.17;;;6.70;99.90;;;;;;4167648;28;20065;-73
2021/11/22 01:03:29;;;;;;;10.32;2.78;;;6.70;99.90;;;;;;4170730;28;20044;-73
2021/11/22 01:05:29;;;;;;;6.25;2.35;;;6.70;99.90;;;;;;4169910;28;20049;-72
2021/11/22 01:07:30;;;;;;;7.57;2.60;;;6.60;99.90;;;;;;4169857;28;20029;-73
2021/11/22 01:09:31;;;;;;;10.32;3.22;;;6.60;99.90;;;;;;4168502;28;20018;-73
2021/11/22 01:11:32;;;;;;;5.30;2.22;;;6.60;99.90;;;;;;4167697;28;20083;-72
2021/11/22 01:13:32;;;;;;;6.03;2.50;;;6.60;99.90;;;;;;4168660;28;20112;-72
2021/11/22 01:15:34;;;;;;;9.07;2.70;;;6.60;99.90;;;;;;4170169;28;20029;-72
2021/11/22 01:17:36;;;;;;;8.00;2.47;;;6.70;99.90;;;;;;4162267;28;20033;-73
2021/11/22 01:19:37;;;;;;;10.40;2.80;;;6.70;99.90;;;;;;4159090;28;20485;-73
2021/11/22 01:21:37;;;;;;;8.07;2.92;;;6.70;99.90;;;;;;4158049;28;20091;-73
2021/11/22 01:23:38;;;;;;;9.02;2.92;;;6.70;99.90;;;;;;4157990;28;20472;-73
2021/11/22 01:25:42;;;;;;;9.65;2.70;;;6.70;99.90;;;;;;4158675;28;20357;-72
2021/11/22 01:27:42;;;;;;;7.47;2.60;;;6.70;99.90;;;;;;4159195;28;20026;-72
2021/11/22 01:29:43;;;;;;;9.02;3.20;;;6.80;99.90;;;;;;4157394;28;20544;-73
2021/11/22 01:31:44;;;;;;;6.07;2.70;;;6.80;99.90;;;;;;4156824;28;20055;-72
2021/11/22 01:33:45;;;;;;;7.45;3.10;;;6.80;99.90;;;;;;4158759;28;20057;-73
2021/11/22 01:35:46;;;;;;;6.50;3.33;;;6.80;99.90;;;;;;4159459;28;20025;-73
2021/11/22 01:37:47;;;;;;;5.95;2.92;;;6.80;99.90;;;;;;4158863;28;20436;-72
2021/11/22 01:39:48;;;;;;;10.57;3.78;;;6.80;99.90;;;;;;4156342;28;20493;-72
2021/11/22 01:41:49;;;;;;;5.63;2.85;;;6.80;99.90;;;;;;4159311;28;20083;-73
2021/11/22 01:43:50;;;;;;;7.57;3.33;;;6.80;99.90;;;;;;4158690;28;20031;-73
2021/11/22 01:45:51;;;;;;;7.75;3.13;;;6.80;99.90;;;;;;4158614;28;20635;-73
2021/11/22 01:47:53;;;;;;;6.32;3.42;;;6.80;99.90;;;;;;4158861;28;20051;-73
2021/11/22 01:49:53;;;;;;;5.25;3.22;;;6.90;99.90;;;;;;4158365;28;20145;-73
2021/11/22 01:51:54;;;;;;;6.35;3.50;;;6.90;99.90;;;;;;4158593;28;20033;-72
2021/11/22 01:53:55;;;;;;;5.68;2.83;;;6.90;99.90;;;;;;4140712;28;20060;-72
2021/11/22 01:55:55;;;;;;;9.68;3.88;;;6.90;99.90;;;;;;4158518;28;20061;-72
2021/11/22 01:57:58;;;;;;;6.63;3.53;;;6.80;99.90;;;;;;4156023;28;20041;-72
2021/11/22 01:59:58;;;;;;;5.85;2.97;;;6.80;99.90;;;;;;4155932;28;20036;-72
2021/11/22 02:02:03;;;;;;;5.40;3.13;;;6.80;99.90;;;;;;4157052;28;20061;-72
2021/11/22 02:04:04;;;;;;;3.83;2.65;;;6.80;99.90;;;;;;4158656;28;20095;-72
2021/11/22 02:06:05;;;;;;;6.18;3.67;;;6.80;99.90;;;;;;4157970;28;20057;-72
2021/11/22 02:08:06;;;;;;;5.88;3.20;;;6.80;99.90;;;;;;4158125;28;20025;-72
2021/11/22 02:10:08;;;;;;;6.30;3.55;;;6.80;99.90;;;;;;4157491;28;20030;-72
2021/11/22 02:12:11;;;;;;;6.93;3.57;;;6.70;99.90;;;;;;4158460;28;20075;-72
2021/11/22 02:14:12;;;;;;;7.18;3.70;;;6.80;99.90;;;;;;4157090;28;20268;-72
2021/11/22 02:16:13;;;;;;;6.50;3.28;;;6.80;99.90;;;;;;4157849;28;20226;-72
2021/11/22 02:18:15;;;;;;;12.77;3.80;;;6.80;99.90;;;;;;4157772;28;20041;-73
2021/11/22 02:20:20;;;;;;;7.70;3.45;;;6.80;99.90;;;;;;4157794;28;20037;-73
2021/11/22 02:22:21;;;;;;;7.55;3.80;;;6.80;99.90;;;;;;4157290;28;20041;-72
2021/11/22 02:24:21;;;;;;;6.75;3.80;;;6.70;99.90;;;;;;4157346;28;20033;-72
2021/11/22 02:26:22;;;;;;;8.98;3.97;;;6.80;99.90;;;;;;4157950;28;20029;-72
2021/11/22 02:28:22;;;;;;;6.20;3.67;;;6.90;99.90;;;;;;4157550;28;20030;-72
2021/11/22 02:30:29;;;;;;;5.45;3.53;;;6.80;99.90;;;;;;4157031;28;20645;-72
2021/11/22 02:32:30;;;;;;;8.52;3.35;;;6.90;99.90;;;;;;4156999;28;20013;-72
2021/11/22 02:34:31;;;;;;;4.72;3.22;;;6.80;99.90;;;;;;4156623;28;20535;-72
2021/11/22 02:36:32;;;;;;;5.00;3.47;;;6.80;99.90;;;;;;4157689;28;20228;-72
2021/11/22 02:38:38;;;;;;;4.82;3.45;;;6.80;99.90;;;;;;4158087;28;20345;-72
2021/11/22 02:40:39;;;;;;;7.70;3.95;;;6.90;99.90;;;;;;4156334;28;20033;-72
2021/11/22 02:42:44;;;;;;;6.60;3.85;;;6.70;99.90;;;;;;4157483;28;20539;-72
2021/11/22 02:44:45;;;;;;;6.13;3.90;;;6.80;99.90;;;;;;4157936;28;20041;-72
2021/11/22 02:46:45;;;;;;;7.68;4.72;;;6.70;99.90;;;;;;4156051;28;20442;-72
2021/11/22 02:48:46;;;;;;;8.25;4.15;;;6.60;99.90;;;;;;4157373;28;20024;-72
2021/11/22 02:50:47;;;;;;;8.75;4.50;;;6.70;99.90;;;;;;4157489;28;20030;-72
2021/11/22 02:52:49;;;;;;;8.10;4.78;;;6.70;99.90;;;;;;4156393;28;20021;-72
2021/11/22 02:54:49;;;;;;;7.95;4.38;;;6.70;99.90;;;;;;4157496;28;20100;-72
2021/11/22 02:56:50;;;;;;;5.88;4.28;;;6.80;99.90;;;;;;4156995;28;20087;-73
2021/11/22 02:58:51;;;;;;;6.28;4.15;;;6.60;99.90;;;;;;4157533;28;20481;-72
2021/11/22 03:00:53;;;;;;;6.28;4.07;;;6.70;99.90;;;;;;4156237;28;20030;-72
2021/11/22 03:02:54;;;;;;;5.80;4.07;;;6.80;99.90;;;;;;4157452;28;20053;-72
2021/11/22 03:04:54;;;;;;;6.85;4.53;;;6.80;99.90;;;;;;4157939;28;20029;-72
2021/11/22 03:06:55;;;;;;;10.98;4.70;;;6.80;99.90;;;;;;4156097;28;20103;-72
2021/11/22 03:08:56;;;;;;;5.90;4.47;;;6.90;99.90;;;;;;4157479;28;20021;-72
2021/11/22 03:10:57;;;;;;;5.47;4.28;;;7.00;99.90;;;;;;4156461;28;20033;-72
2021/11/22 03:12:59;;;;;;;5.35;4.22;;;7.00;99.90;;;;;;4154709;28;20025;-72
2021/11/22 03:15:02;;;;;;;5.80;4.57;;;7.00;99.90;;;;;;4157667;28;20405;-72
2021/11/22 03:17:03;;;;;;;6.07;4.10;;;7.00;99.90;;;;;;4157120;28;20048;-72
2021/11/22 03:19:04;;;;;;;8.90;4.40;;;7.00;99.90;;;;;;4157066;28;20052;-72
2021/11/22 03:21:05;;;;;;;8.25;4.30;;;7.10;99.90;;;;;;4156087;28;20060;-72
2021/11/22 03:23:06;;;;;;;5.53;4.28;;;7.00;99.90;;;;;;4157347;28;20036;-72
2021/11/22 03:25:09;;;;;;;7.70;5.05;;;7.00;99.90;;;;;;4157268;28;20033;-72
2021/11/22 03:27:10;;;;;;;9.23;4.57;;;7.00;99.90;;;;;;4154989;28;20064;-72
2021/11/22 03:29:12;;;;;;;7.47;5.10;;;6.90;99.90;;;;;;4156448;28;20044;-72
2021/11/22 03:31:12;;;;;;;6.43;4.43;;;7.00;99.90;;;;;;4157442;28;20056;-73
2021/11/22 03:33:13;;;;;;;6.57;4.10;;;6.90;99.90;;;;;;4155685;28;20029;-72
2021/11/22 03:35:15;;;;;;;8.55;4.45;;;7.00;99.90;;;;;;4155852;28;20030;-72
2021/11/22 03:37:15;;;;;;;4.43;3.80;;;7.00;99.90;;;;;;4155323;28;20033;-72
2021/11/22 03:39:24;;;;;;;6.60;3.70;;;7.10;99.90;;;;;;4154934;28;20038;-72
2021/11/22 03:41:25;;;;;;;5.22;4.25;;;7.10;99.90;;;;;;4154036;28;20112;-72
2021/11/22 03:43:33;;;;;;;6.35;3.92;;;7.10;99.90;;;;;;4155563;28;20024;-72
2021/11/22 03:45:35;;;;;;;4.93;3.85;;;7.10;99.90;;;;;;4156460;28;20037;-72
2021/11/22 03:47:37;;;;;;;4.45;3.60;;;7.10;99.90;;;;;;4155302;28;20155;-72
2021/11/22 03:49:39;;;;;;;4.60;3.57;;;7.20;99.90;;;;;;4157316;28;20026;-72
2021/11/22 03:51:40;;;;;;;4.72;3.72;;;7.20;99.90;;;;;;4156637;28;20715;-72
2021/11/22 03:53:41;;;;;;;5.20;3.90;;;7.20;99.90;;;;;;4156780;28;20029;-72
2021/11/22 03:55:41;;;;;;;5.05;3.78;;;7.10;99.90;;;;;;4157067;28;20504;-72
2021/11/22 03:57:42;;;;;;;4.95;3.75;;;7.20;99.90;;;;;;4155084;28;20053;-72
2021/11/22 03:59:43;;;;;;;4.95;3.60;;;7.20;99.90;;;;;;4155250;28;20029;-72
2021/11/22 04:01:43;;;;;;;6.68;3.85;;;7.20;99.90;;;;;;4155379;28;20029;-72
2021/11/22 04:03:44;;;;;;;5.07;3.85;;;7.20;99.90;;;;;;4155268;28;20295;-72
2021/11/22 04:05:45;;;;;;;6.05;3.80;;;7.10;99.90;;;;;;4156348;28;20073;-72
2021/11/22 04:07:45;;;;;;;7.57;3.88;;;7.20;99.90;;;;;;4154593;28;20030;-72
2021/11/22 04:09:46;;;;;;;5.22;3.90;;;7.20;99.90;;;;;;4156855;28;20128;-72
2021/11/22 04:11:46;;;;;;;4.97;4.00;;;7.20;99.90;;;;;;4156760;28;20033;-73
2021/11/22 04:13:47;;;;;;;5.28;3.70;;;7.20;99.90;;;;;;4154984;28;20144;-72
2021/11/22 04:15:48;;;;;;;7.20;4.78;;;7.20;99.90;;;;;;4156535;28;20633;-72
2021/11/22 04:17:48;;;;;;;6.75;4.30;;;7.20;99.90;;;;;;4156091;28;20034;-73
2021/11/22 04:19:49;;;;;;;4.93;3.90;;;7.20;99.90;;;;;;4155482;28;20026;-72
2021/11/22 04:21:50;;;;;;;5.47;3.85;;;7.20;99.90;;;;;;4155117;28;20021;-72
2021/11/22 04:23:53;;;;;;;5.32;3.97;;;7.20;99.90;;;;;;4156680;28;20025;-72
2021/11/22 04:25:54;;;;;;;5.28;3.83;;;7.20;99.90;;;;;;4156498;28;20040;-72
2021/11/22 04:27:54;;;;;;;5.65;3.97;;;7.30;99.90;;;;;;4155856;28;20030;-72
2021/11/22 04:29:55;;;;;;;4.45;3.88;;;7.30;99.90;;;;;;4156480;28;20388;-72
2021/11/22 04:31:56;;;;;;;4.15;3.33;;;7.30;99.90;;;;;;4156660;28;20774;-72
2021/11/22 04:33:56;;;;;;;4.45;3.72;;;7.20;99.90;;;;;;4156554;28;20156;-72
2021/11/22 04:35:57;;;;;;;5.80;3.85;;;7.20;99.90;;;;;;4156450;28;20025;-72
2021/11/22 04:37:58;;;;;;;5.50;4.00;;;7.20;99.90;;;;;;4150657;28;20144;-72
2021/11/22 04:40:00;;;;;;;4.90;3.63;;;7.20;99.90;;;;;;4156568;28;20073;-72
2021/11/22 04:42:00;;;;;;;3.72;3.13;;;7.20;99.90;;;;;;4155473;28;20032;-72
2021/11/22 04:44:02;;;;;;;5.07;3.67;;;7.20;99.90;;;;;;4156053;28;20033;-72
2021/11/22 04:46:03;;;;;;;4.63;3.75;;;7.10;99.90;;;;;;4156484;28;20121;-72
2021/11/22 04:48:05;;;;;;;4.75;3.70;;;7.20;99.90;;;;;;4156438;28;20683;-72
2021/11/22 04:50:07;;;;;;;3.95;3.47;;;7.20;99.90;;;;;;4156850;28;20029;-72
2021/11/22 04:52:08;;;;;;;4.93;3.47;;;7.10;99.90;;;;;;4157177;28;20094;-72
2021/11/22 04:54:09;;;;;;;6.72;3.78;;;7.10;99.90;;;;;;4159943;28;20103;-72
2021/11/22 04:56:09;;;;;;;3.97;3.17;;;7.00;99.90;;;;;;4159485;28;20029;-72
2021/11/22 04:58:10;;;;;;;5.63;3.30;;;7.10;99.90;;;;;;4157946;28;20099;-72
2021/11/22 05:00:12;;;;;;;4.72;3.28;;;7.00;99.90;;;;;;4159781;28;20041;-72
2021/11/22 05:02:13;;;;;;;4.18;3.20;;;7.00;99.90;;;;;;4159326;28;20034;-72
2021/11/22 05:04:14;;;;;;;4.18;3.15;;;7.00;99.90;;;;;;4141876;28;20057;-72
2021/11/22 05:06:14;;;;;;;4.35;2.83;;;7.00;99.90;;;;;;4140664;28;20194;-72
2021/11/22 05:08:15;;;;;;;4.90;3.30;;;7.10;99.90;;;;;;4158191;28;20048;-72
2021/11/22 05:10:17;;;;;;;3.55;2.80;;;7.00;99.90;;;;;;4157708;28;20029;-72
2021/11/22 05:12:18;;;;;;;3.70;3.13;;;7.10;99.90;;;;;;4158038;28;20057;-72
2021/11/22 05:14:19;;;;;;;6.05;3.10;;;7.10;99.90;;;;;;4181589;28;20024;-72
2021/11/22 05:16:19;;;;;;;3.42;3.00;;;7.00;99.90;;;;;;4159068;28;20029;-72
2021/11/22 05:18:20;;;;;;;3.63;2.67;;;6.90;99.90;;;;;;4155850;28;20029;-72
2021/11/22 05:20:21;;;;;;;3.53;2.90;;;7.00;99.90;;;;;;4156270;28;20029;-72
2021/11/22 05:22:23;;;;;;;3.47;2.67;;;7.10;99.90;;;;;;4154847;28;20040;-72
2021/11/22 05:24:24;;;;;;;5.13;2.90;;;7.10;99.90;;;;;;4157733;28;20052;-72
2021/11/22 05:26:25;;;;;;;3.75;2.85;;;7.10;99.90;;;;;;4158869;28;20041;-72
2021/11/22 05:28:27;;;;;;;6.50;3.45;;;7.10;99.90;;;;;;4158499;28;20076;-72
2021/11/22 05:30:28;;;;;;;3.47;2.95;;;7.10;99.90;;;;;;4157827;28;20036;-72
2021/11/22 05:32:28;;;;;;;4.57;2.97;;;7.10;99.90;;;;;;4158057;28;20026;-72
2021/11/22 05:34:29;;;;;;;4.68;3.17;;;7.20;99.90;;;;;;4158788;28;20018;-72
2021/11/22 05:36:32;;;;;;;4.53;2.78;;;7.20;99.90;;;;;;4157714;28;20120;-72
2021/11/22 05:38:33;;;;;;;4.05;2.50;;;7.20;99.90;;;;;;4153245;28;20037;-72
2021/11/22 05:40:34;;;;;;;3.20;2.90;;;7.20;99.90;;;;;;4158599;28;20053;-72
2021/11/22 05:42:34;;;;;;;3.13;2.78;;;7.20;99.90;;;;;;4158815;28;20042;-72
2021/11/22 05:44:35;;;;;;;3.75;2.90;;;7.20;99.90;;;;;;4159067;28;20392;-72
2021/11/22 05:46:36;;;;;;;5.13;2.55;;;7.20;99.90;;;;;;4156335;28;20136;-72
2021/11/22 05:48:38;;;;;;;8.38;3.17;;;7.20;99.90;;;;;;4158483;28;20033;-72
2021/11/22 05:50:38;;;;;;;5.10;3.10;;;7.20;99.90;;;;;;4149796;28;20091;-72
2021/11/22 05:52:39;;;;;;;4.55;2.90;;;7.20;99.90;;;;;;4154113;28;20280;-73
2021/11/22 05:54:55;;;;;;;5.07;2.90;;;7.20;99.90;;;;;;4153632;28;20029;-74
2021/11/22 05:56:55;;;;;;;4.75;2.88;;;7.20;99.90;;;;;;4153507;28;20034;-74
2021/11/22 05:58:56;;;;;;;4.75;3.00;;;7.20;99.90;;;;;;4153429;28;20873;-73
2021/11/22 06:01:02;;;;;;;3.50;2.65;;;7.20;99.90;;;;;;4153722;28;20034;-74
2021/11/22 06:03:03;;;;;;;6.10;3.20;;;7.20;99.90;;;;;;4154554;28;20037;-74
2021/11/22 06:05:04;;;;;;;4.07;2.88;;;7.20;99.90;;;;;;4154575;28;20033;-74
2021/11/22 06:07:05;;;;;;;5.45;2.72;;;7.20;99.90;;;;;;4154189;28;20033;-74
2021/11/22 06:09:05;;;;;;;4.95;2.58;;;7.10;99.90;;;;;;4153978;28;20029;-70
2021/11/22 06:11:06;;;;;;;6.93;2.88;;;7.10;99.90;;;;;;4153902;28;20038;-71
2021/11/22 06:13:11;;;;;;;5.68;2.90;;;7.10;99.90;;;;;;4152924;28;20040;-69
2021/11/22 06:15:11;;;;;;;4.30;3.00;;;7.10;99.90;;;;;;4152781;28;20744;-70
2021/11/22 06:17:12;;;;;;;3.90;2.40;;;7.10;99.90;;;;;;4153330;28;20060;-70
2021/11/22 06:19:12;;;;;;;4.57;2.63;;;7.00;99.90;;;;;;4154574;28;20361;-70
2021/11/22 06:21:13;;;;;;;4.05;2.70;;;7.00;99.90;;;;;;4153098;28;20073;-70
2021/11/22 06:23:14;;;;;;;4.00;2.40;;;7.00;99.90;;;;;;4141329;28;20032;-70
2021/11/22 06:25:15;;;;;;;3.55;2.35;;;6.90;99.90;;;;;;4155655;28;20095;-69
2021/11/22 06:27:16;;;;;;;4.97;2.47;;;6.90;99.90;;;;;;4155176;28;20038;-70
2021/11/22 06:29:18;;;;;;;7.72;2.63;;;6.90;99.90;;;;;;4138729;28;20033;-70
2021/11/22 06:31:20;;;;;;;3.60;2.20;;;6.90;99.90;;;;;;4157221;28;20033;-70
2021/11/22 06:33:20;;;;;;;3.55;2.50;;;6.90;99.90;;;;;;4154102;28;20037;-70
2021/11/22 06:35:22;;;;;;;4.47;2.55;;;6.90;99.90;;;;;;4157115;28;20048;-70
2021/11/22 06:37:28;;;;;;;6.03;2.67;;;6.80;99.90;;;;;;4155010;28;20029;-71
2021/11/22 06:39:28;;;;;;;3.30;2.40;;;6.80;99.90;;;;;;4151722;28;20077;-71
2021/11/22 06:41:29;;;;;;;8.25;2.80;;;6.80;99.90;;;;;;4154432;28;20394;-71
2021/11/22 06:43:30;;;;;;;3.33;2.10;;;6.80;99.90;;;;;;4155857;28;20030;-71
2021/11/22 06:45:30;;;;;;;3.97;2.13;;;6.70;99.90;;;;;;4156200;28;20545;-70
2021/11/22 06:47:32;;;;;;;5.88;2.38;;;6.70;99.90;;;;;;4152799;28;20087;-71
2021/11/22 06:49:32;;;;;;;4.63;2.22;;;6.70;99.90;;;;;;4154597;28;20441;-70
2021/11/22 06:51:33;;;;;;;3.38;1.98;;;6.70;99.90;;;;;;4153889;28;20141;-70
2021/11/22 06:53:33;;;;;;;3.25;2.40;;;6.70;99.90;;;;;;4152456;28;20053;-71
2021/11/22 06:55:34;;;;;;;4.20;2.42;;;6.70;99.90;;;;;;4153593;28;20217;-71
2021/11/22 06:57:35;;;;;;;5.78;2.45;;;6.70;99.90;;;;;;4152232;28;20132;-70
2021/11/22 06:59:36;;;;;;;3.80;1.88;;;6.60;99.90;;;;;;4154782;28;20732;-71
2021/11/22 07:01:37;;;;;;;4.03;1.77;;;6.60;99.90;;;;;;4153210;28;20084;-71
2021/11/22 07:03:37;;;;;;;3.55;1.98;;;6.60;99.90;;;;;;4153067;28;20048;-71
2021/11/22 07:05:38;;;;;;;3.72;1.85;;;6.60;99.90;;;;;;4156751;28;20053;-71
2021/11/22 07:07:39;;;;;;;3.20;1.67;;;6.60;99.90;;;;;;4152314;28;20068;-71
2021/11/22 07:09:40;;;;;;;3.25;2.10;;;6.60;99.90;;;;;;4149144;28;20084;-71
2021/11/22 07:11:40;;;;;;;2.38;1.85;;;6.60;99.90;;;;;;4154367;28;20397;-70
2021/11/22 07:13:41;;;;;;;4.20;1.73;;;6.60;99.90;;;;;;4155037;28;20034;-70
2021/11/22 07:15:42;;;;;;;4.45;2.00;;;6.50;99.90;;;;;;4156027;28;20029;-71
2021/11/22 07:17:43;;;;;;;3.65;2.28;;;6.50;99.90;;;;;;4156315;28;20515;-71
2021/11/22 07:19:44;;;;;;;2.95;2.08;;;6.50;99.90;;;;;;4153698;28;20029;-71
2021/11/22 07:21:44;;;;;;;4.40;2.40;;;6.50;99.90;;;;;;4154751;28;20065;-71
2021/11/22 07:23:45;;;;;;;4.75;2.30;;;6.50;99.90;;;;;;4153144;28;20400;-71
2021/11/22 07:25:46;;;;;;;3.70;2.10;;;6.40;99.90;;;;;;4154661;28;20041;-71
2021/11/22 07:27:47;;;;;;;4.97;2.28;;;6.40;99.90;;;;;;4151255;28;20030;-71
2021/11/22 07:29:47;;;;;;;4.38;2.05;;;6.40;99.90;;;;;;4156429;28;20033;-71
2021/11/22 07:31:48;;;;;;;3.40;2.03;;;6.40;99.90;;;;;;4137426;28;20022;-71
2021/11/22 07:33:49;;;;;;;4.78;2.53;;;6.40;99.90;;;;;;4154245;28;20079;-71
2021/11/22 07:35:50;;;;;;;2.90;1.80;;;6.40;99.90;;;;;;4155303;28;20029;-71
2021/11/22 07:37:51;;;;;;;3.80;2.47;;;6.30;99.90;;;;;;4156201;28;20052;-71
2021/11/22 07:39:52;;;;;;;3.53;1.60;;;6.30;99.90;;;;;;4148845;28;20080;-71
2021/11/22 07:41:56;;;;;;;5.35;2.20;;;6.30;99.90;;;;;;4148947;28;20091;-71
2021/11/22 07:43:57;;;;;;;4.40;1.80;;;6.20;99.90;;;;;;4153572;28;20037;-71
2021/11/22 07:45:59;;;;;;;3.67;1.77;;;6.20;99.90;;;;;;4148322;28;20049;-71
2021/11/22 07:47:59;;;;;;;2.28;1.48;;;6.20;99.90;;;;;;4153935;28;20557;-71
2021/11/22 07:50:00;;;;;;;3.47;2.22;;;6.30;99.90;;;;;;4155255;28;20121;-71
2021/11/22 07:52:01;;;;;;;3.78;1.85;;;6.20;99.90;;;;;;4136130;28;20049;-71
2021/11/22 07:54:01;;;;;;;2.53;1.77;;;6.20;99.90;;;;;;4152831;28;20841;-71
2021/11/22 07:56:03;;;;;;;3.65;1.83;;;6.20;99.90;;;;;;4155005;28;20107;-71
2021/11/22 07:58:04;;;;;;;3.08;1.98;;;6.20;99.90;;;;;;4154801;28;20038;-71
2021/11/22 08:00:10;;;;;;;3.08;1.95;;;6.20;99.90;;;;;;4153468;28;20041;-71
2021/11/22 08:02:10;;;;;;;3.30;1.80;;;6.20;99.90;;;;;;4152957;28;20511;-71
2021/11/22 08:04:15;;;;;;;5.63;2.30;;;6.20;99.90;;;;;;4154380;28;20112;-71
2021/11/22 08:06:16;;;;;;;1.88;1.50;;;6.20;99.90;;;;;;4152040;28;20061;-71
2021/11/22 08:08:17;;;;;;;4.38;1.83;;;6.20;99.90;;;;;;4152448;28;20055;-71
2021/11/22 08:10:26;;;;;;;3.05;1.63;;;6.40;99.90;;;;;;4154144;28;20052;-71
2021/11/22 08:12:28;;;;;;;3.20;1.60;;;6.60;99.90;;;;;;4153498;28;20045;-71
2021/11/22 08:14:29;;;;;;;2.15;1.60;;;6.90;99.90;;;;;;4154032;28;20041;-71
2021/11/22 08:16:30;;;;;;;3.45;1.65;;;7.10;99.90;;;;;;4154213;28;20033;-71
2021/11/22 08:18:31;;;;;;;2.78;2.00;;;7.30;99.90;;;;;;4153822;28;20036;-71
2021/11/22 08:20:32;;;;;;;4.68;1.85;;;7.60;99.90;;;;;;4154794;28;20038;-70
2021/11/22 08:22:33;;;;;;;2.92;1.58;;;7.90;99.90;;;;;;4153902;28;20128;-71
2021/11/22 08:24:34;;;;;;;2.90;1.65;;;8.30;99.90;;;;;;4154902;28;20125;-70
2021/11/22 08:26:35;;;;;;;4.00;1.88;;;8.60;99.90;;;;;;4152609;28;20065;-71
2021/11/22 08:28:35;;;;;;;2.70;1.67;;;8.90;99.90;;;;;;4156385;28;20044;-71
2021/11/22 08:30:37;;;;;;;3.53;1.50;;;9.10;99.90;;;;;;4158488;28;20026;-71
2021/11/22 08:32:38;;;;;;;2.60;1.48;;;9.10;99.90;;;;;;4155470;28;20041;-71
2021/11/22 08:34:39;;;;;;;4.55;1.98;;;9.00;99.90;;;;;;4155627;28;20029;-71
2021/11/22 08:36:39;;;;;;;2.38;1.45;;;9.00;99.90;;;;;;4156673;28;20033;-71
2021/11/22 08:38:40;;;;;;;4.43;1.50;;;9.00;99.90;;;;;;4156437;28;20025;-71
2021/11/22 08:40:42;;;;;;;4.10;1.73;;;8.90;99.90;;;;;;4157001;28;20076;-71
2021/11/22 08:42:44;;;;;;;3.05;1.52;;;8.80;99.90;;;;;;4157847;28;20033;-70
2021/11/22 08:44:45;;;;;;;2.40;1.63;;;8.80;99.90;;;;;;4157024;28;20033;-70
2021/11/22 08:46:47;;;;;;;5.15;1.88;;;8.90;99.90;;;;;;4156187;28;20114;-70
2021/11/22 08:48:48;;;;;;;2.03;1.40;;;9.10;99.90;;;;;;4156441;28;20025;-70
2021/11/22 08:50:48;;;;;;;3.28;1.58;;;9.30;99.90;;;;;;4157487;28;20451;-70
2021/11/22 08:52:49;;;;;;;3.63;1.73;;;9.60;99.90;;;;;;4156489;28;20021;-70
2021/11/22 08:54:51;;;;;;;2.30;1.75;;;9.90;99.90;;;;;;4156455;28;20040;-70
2021/11/22 08:56:51;;;;;;;4.32;2.10;;;10.20;99.90;;;;;;4156131;28;20033;-70
2021/11/22 08:58:52;;;;;;;3.70;2.17;;;10.50;99.90;;;;;;4154820;28;20033;-70
2021/11/22 09:00:53;;;;;;;3.10;1.80;;;10.80;99.90;;;;;;4158065;28;20053;-73
2021/11/22 09:02:54;;;;;;;3.38;1.70;;;11.20;99.90;;;;;;4156596;28;20129;-73
2021/11/22 09:04:55;;;;;;;2.95;1.50;;;11.40;99.90;;;;;;4156476;28;20112;-73
2021/11/22 09:06:57;;;;;;;3.78;1.45;;;11.50;99.90;;;;;;4155935;28;20093;-73
2021/11/22 09:08:57;;;;;;;3.90;1.73;;;11.80;99.90;;;;;;4155517;28;20028;-73
2021/11/22 09:10:58;;;;;;;6.07;1.52;;;11.90;99.90;;;;;;4157979;28;20026;-73
2021/11/22 09:12:59;;;;;;;2.63;1.60;;;12.10;99.90;;;;;;4156514;28;20033;-73
2021/11/22 09:15:00;;;;;;;2.70;1.48;;;11.90;99.90;;;;;;4155537;28;20575;-73
2021/11/22 09:17:00;;;;;;;4.65;1.48;;;11.70;99.90;;;;;;4156529;28;20037;-73
2021/11/22 09:19:03;;;;;;;4.05;1.70;;;11.90;99.90;;;;;;4157236;28;20413;-73
2021/11/22 09:21:04;;;;;;;3.90;1.63;;;11.70;99.90;;;;;;4156197;28;20041;-73
2021/11/22 09:23:04;;;;;;;3.67;1.58;;;11.40;99.90;;;;;;4155447;28;20037;-73
2021/11/22 09:25:08;;;;;;;4.05;1.77;;;11.30;99.90;;;;;;4156282;28;20037;-73
2021/11/22 09:27:08;;;;;;;4.28;1.48;;;10.90;99.90;;;;;;4155824;28;20482;-73
2021/11/22 09:29:09;;;;;;;2.60;1.58;;;10.60;99.90;;;;;;4156105;28;20033;-73
2021/11/22 09:31:11;;;;;;;3.90;1.60;;;10.30;99.90;;;;;;4157544;28;20429;-73
2021/11/22 09:33:12;;;;;;;3.35;1.52;;;10.40;99.90;;;;;;4156654;28;20041;-72
2021/11/22 09:35:13;;;;;;;4.32;1.38;;;10.20;99.90;;;;;;4156539;28;20037;-73
2021/11/22 09:37:13;;;;;;;7.70;1.67;;;10.20;99.90;;;;;;4157517;28;20131;-73
2021/11/22 09:39:18;;;;;;;3.47;1.63;;;10.00;99.90;;;;;;4155680;28;20030;-72
2021/11/22 09:41:20;;;;;;;5.18;2.00;;;9.70;99.90;;;;;;4154974;28;20037;-72
2021/11/22 09:43:20;;;;;;;2.22;1.63;;;9.70;99.90;;;;;;4156209;28;20420;-73
2021/11/22 09:45:21;;;;;;;2.78;1.60;;;9.60;99.90;;;;;;4155858;28;20108;-73
2021/11/22 09:47:22;;;;;;;3.60;1.60;;;9.60;99.90;;;;;;4155301;28;20030;-72
2021/11/22 09:49:24;;;;;;;2.25;1.48;;;9.60;99.90;;;;;;4154667;28;20050;-72
2021/11/22 09:51:24;;;;;;;5.32;1.80;;;9.50;99.90;;;;;;4156999;28;20401;-72
2021/11/22 09:53:25;;;;;;;2.38;1.48;;;9.50;99.90;;;;;;4155051;28;20044;-72
2021/11/22 09:55:29;;;;;;;3.40;1.60;;;9.40;99.90;;;;;;4153735;28;20013;-72
2021/11/22 09:57:30;;;;;;;2.92;1.60;;;9.50;99.90;;;;;;4155364;28;20448;-72
2021/11/22 09:59:31;;;;;;;1.92;1.27;;;9.50;99.90;;;;;;4155180;28;20619;-72
2021/11/22 10:01:36;;;;;;;2.47;1.50;;;9.50;99.90;;;;;;4155648;28;20138;-71
2021/11/22 10:03:37;;;;;;;3.20;1.50;;;9.40;99.90;;;;;;4155485;28;20029;-72
2021/11/22 10:05:40;;;;;;;3.03;1.73;;;9.50;99.90;;;;;;4152905;28;20111;-71
2021/11/22 10:14:12;;;;;;;3.20;1.80;;;9.30;99.90;;;;;;4250975;22;20062;-72
2021/11/22 10:16:15;;;;;;;3.17;1.45;;;9.30;99.90;;;;;;4136173;28;20045;-73
2021/11/22 10:57:38;;;;;;;3.50;1.52;;;8.80;99.90;;;;;;4648018;23;20053;-73
2021/11/22 10:59:38;;;;;;;2.80;1.67;;;8.80;99.90;;;;;;4153508;28;20104;-74
2021/11/22 11:01:51;;;;;;;2.90;1.42;;;8.80;99.90;;;;;;4145064;28;20026;-73
2021/11/22 11:04:05;;;;;;;5.63;1.40;;;8.90;99.90;;;;;;4145382;28;20026;-74
2021/11/22 11:06:06;;;;;;;2.63;1.65;;;8.90;99.90;;;;;;4139163;28;20042;-74
2021/11/22 11:08:12;;;;;;;3.78;1.48;;;8.80;99.90;;;;;;4142905;28;20057;-74
2021/11/22 11:10:22;;;;;;;2.47;1.40;;;8.80;99.90;;;;;;4144272;28;20026;-74
2021/11/22 11:14:35;;;;;;;1.38;1.13;;;8.70;99.90;;;;;;4131284;28;20328;-70
2021/11/22 11:16:37;;;;;;;1.60;1.20;;;8.60;99.90;;;;;;4131430;28;20113;-70
2021/11/22 11:20:50;;;;;;;2.55;1.52;;;8.60;99.90;;;;;;4115136;28;20061;-72
2021/11/22 11:22:52;;;;;;;3.65;1.40;;;8.50;99.90;;;;;;4118473;28;20030;-72
2021/11/22 11:24:52;;;;;;;2.72;1.23;;;8.60;99.90;;;;;;4120504;28;20594;-72
2021/11/22 11:26:53;;;;;;;3.58;1.63;;;8.60;99.90;;;;;;4100216;28;20090;-72
2021/11/22 11:28:55;;;;;;;3.30;1.85;;;8.60;99.90;;;;;;4118252;28;20723;-72
2021/11/22 11:30:56;;;;;;;1.75;1.20;;;8.50;99.90;;;;;;4102527;28;20106;-72